Flight Track Log - Related Links

Times and Time Zones

All times are in EDT time to prevent confusion due to time zone crossing. See the UAL3851 flight status page for this flight to view local times or setup timezone preferences in your user account.

Time Position Orientation Groundspeed Altitude Reporting Facility
EDT Latitude Longitude Course Direction KTS MPH feet Rate Location/Type
Fri 08:42:29 AM 39.0500 -84.6833 270° West 175 201 1,300  Level Cincinnati TRACON
Fri 08:42:59 AM 39.0500 -84.7167 270° West 179 206 2,400 1,800 Climbing Cincinnati TRACON
Fri 08:43:59 AM 39.0500 -84.8167 270° West 269 310 4,000 1,850 Climbing Cincinnati TRACON
Fri 08:44:59 AM 39.0667 -84.8833 288° West 261 300 6,100 2,123 Climbing Cincinnati TRACON
Fri 08:46:09 AM 39.1419 -84.9108 344° North 257 296 8,600 2,104 Climbing Indianapolis Center
Fri 08:47:13 AM 39.2111 -84.9314 347° North 256 295 10,800 1,645 Climbing Indianapolis Center
Fri 08:48:13 AM 39.2828 -84.9733 336° Northwest 278 320 12,000 1,091 Climbing Indianapolis Center
Fri 08:49:14 AM 39.3633 -85.0194 336° Northwest 310 357 13,000 1,220 Climbing Indianapolis Center
Fri 08:50:16 AM 39.4661 -85.0783 336° Northwest 334 384 14,500 1,317 Climbing Indianapolis Center
Fri 08:51:17 AM 39.5533 -85.1272 337° Northwest 341 392 15,700 1,200 Climbing Indianapolis Center
Fri 08:52:21 AM 39.6397 -85.1786 335° Northwest 342 394 17,000 1,161 Climbing Indianapolis Center
Fri 08:53:21 AM 39.7286 -85.2294 336° Northwest 349 402 18,100 1,150 Climbing Indianapolis Center
Fri 08:54:21 AM 39.8167 -85.2817 336° Northwest 350 403 19,300 1,113 Climbing Indianapolis Center
Fri 08:55:25 AM 39.9067 -85.3322 337° Northwest 353 406 20,400 1,113 Climbing Indianapolis Center
Fri 08:56:25 AM 40.0169 -85.3972 336° Northwest 362 417 21,600 774 Climbing Indianapolis Center
Fri 08:57:29 AM 40.1111 -85.4533 336° Northwest 372 428 22,000 192 Climbing Indianapolis Center
Fri 08:58:30 AM 40.2092 -85.5106 336° Northwest 386 444 22,000  Level Indianapolis Center
Fri 08:59:32 AM 40.3108 -85.5706 336° Northwest 400 460 22,000  Level Indianapolis Center
Fri 09:00:33 AM 40.4119 -85.6303 336° Northwest 401 461 22,000  Level Indianapolis Center
Fri 09:01:38 AM 40.5347 -85.6947 338° Northwest 400 460 22,000  Level Chicago Center
Fri 09:02:40 AM 40.6394 -85.7342 344° North 395 455 22,000  Level Chicago Center
Fri 09:03:42 AM 40.7550 -85.7806 343° North 392 451 22,000  Level Chicago Center
Fri 09:04:44 AM 40.8469 -85.8558 328° Northwest 402 463 22,000  Level Chicago Center
Fri 09:05:46 AM 40.9039 -85.9961 298° West 426 490 22,000  Level Chicago Center
Fri 09:06:48 AM 40.9594 -86.1367 298° West 429 494 22,000  Level Chicago Center
Fri 09:07:50 AM 41.0142 -86.2797 297° West 432 497 22,000  Level Chicago Center
Fri 09:08:53 AM 41.0697 -86.4206 298° West 433 498 22,000  Level Chicago Center
Fri 09:09:54 AM 41.1353 -86.5928 297° West 435 501 22,000  Level Chicago Center
Fri 09:10:56 AM 41.1881 -86.7278 297° West 428 493 22,000 -581 Level Chicago Center
Fri 09:11:58 AM 41.2422 -86.8664 297° West 425 489 20,800 -2,081 Descending Chicago Center
Fri 09:13:00 AM 41.2911 -87.0006 296° West 409 471 17,700 -2,952 Descending Chicago Center
Fri 09:14:02 AM 41.3503 -87.1569 297° West 399 459 14,700 -2,710 Descending Chicago Center
Fri 09:15:04 AM 41.4175 -87.2567 312° West 362 417 12,100 -1,790 Descending Chicago Center
Fri 09:16:06 AM 41.4883 -87.3419 318° Northwest 350 403 11,000 -532 Descending Chicago Center
Fri 09:17:08 AM 41.5603 -87.4228 320° Northwest 344 396 11,000  Level Chicago Center
Fri 09:18:10 AM 41.6342 -87.5033 321° Northwest 345 397 11,000  Level Chicago Center
Fri 09:19:12 AM 41.7214 -87.6017 320° Northwest 346 398 11,000 -339 Level Chicago Center
Fri 09:20:14 AM 41.7894 -87.6783 320° Northwest 331 381 10,300 -1,008 Descending Chicago Center
Fri 09:21:17 AM 41.8503 -87.7378 324° Northwest 283 326 8,900 -1,296 Descending Chicago Center
Fri 09:22:19 AM 41.9192 -87.7406 358° North 255 293 7,600 -919 Descending Chicago Center
Fri 09:23:21 AM 41.9817 -87.7411 360° North 235 270 7,000 -1,161 Descending Chicago Center
Fri 09:24:23 AM 42.0422 -87.7069 23° Northeast 200 230 5,200 -1,742 Descending Chicago Center

Login

Don't have an account? Register now (free) for customized features, flight alerts, and more!